Aérodrome :
LOGIN :

S'inscrire | Disclaimer

   EN    FR    IT 

 










Légende :    VFR   VFR Marginal   IFR   IFR Intensif   IFR Très Intensif
Visi : 
Plafond : 
>= 8 km
>= 3000ft
5 à 8 km
1000 à 3000 ft
1500m à 5 km
500 à 1000 ft
800 à 1500m
200 à 500 ft
< 800m
< 200 ft
Symboles :   Orages  Brouillard  Fortes neiges  Fortes précipitations  Vent > 20 kt
SIGMETs :   Divers  Orages  Givrage  Turbulence  Onde Orograph.  Cendres Volcan.






- Altitude de l'aérodrome : 681 ft
- Code IATA : OSL


ENGM - Oslo Gardermoen

DERNIER METAR :
  • 260050Z 14003KT CAVOK 11/07 Q1031

METARs EXPIRÉS :
  • 260020Z 00000KT CAVOK 11/07 Q1031
  • 252350Z VRB02KT CAVOK 12/07 Q1031
  • 252320Z 19004KT CAVOK 11/07 Q1031
  • 252250Z 18006KT CAVOK 11/07 Q1031
  • 252220Z 19007KT CAVOK 12/06 Q1031

TAF TAF ENGM
Valide du 26 à 00h jusqu'au 27 à 00h UTC


2600/2624 19007KT CAVOK
TEMPO 2610/2615 20015G25KT
BECMG 2622/2624 01010KT



MET'MAP, la Météo Aéronautique d'un coup d'oeil ! - Copyright ORBIFLY Décembre 2007 - Disclaimer

ORBIFLY MET'MAP TEAM :

Programmation & Développement : Alexandra Zaïnal
Sur une idée originale de : Baudouin d'Aumeries
Assistance à la programmation : Marc-Olivier Méhu
Soutien technique & logistique : Manuel Goepfert

Contact : metmap@orbifly.com




SOURCES & CREDITS :

   NOAA